Rochester, NH (03867)

7:36 AM EST on January 29, 2015 (GMT -0500)
Rochester Hill | Change Station
CLOSE
Current Station
Personal Weather Station
Location: Rochester, NH
Elevation: 420 ft
Nearby Weather Stations
Active Advisory: Winter Weather Advisory Active Notice: Record Report

Elev 420 ft 43.29 °N, 70.95 °W | Updated 7 seconds ago

Partly Cloudy
Partly Cloudy
3.2 °F
Feels Like 3 °F
N
1.0
Wind Variable Wind from NW
Gusts 3.0 mph

Today
High -- | Low -- °F
--% Chance of Precip.
Yesterday
High -- | Low -- °F
Precip. -- in
7:03 AM 4:51 PM
Waxing Gibbous, 74% visible
Pressure 30.27 in
Visibility 10.0 miles
Clouds Clear
Windchill 3 °F
Dew Point 0 °F
Humidity 88%
Rainfall 0.00 in
Snow Depth Not available.
UV 0 out of 12
Pollen .10 out of 12
Air Quality Not available.
Flu Activity Not available.
METAR KDAW 291151Z AUTO 32008KT 10SM CLR M18/M22 A3026 RMK AO2 SLP250 T11831222 11133 21183 51006

More Conditions Fewer Conditions

Pressure 30.27 in
Visibility 10.0 miles
Clouds Clear
Windchill 3 °F
Dew Point 0 °F
Humidity 88%
Rainfall 0.00 in
Snow Depth Not available.
UV 0 out of 12
Pollen .10 out of 12
Air Quality Not available.
Flu Activity Not available.
METAR KDAW 291151Z AUTO 32008KT 10SM CLR M18/M22 A3026 RMK AO2 SLP250 T11831222 11133 21183 51006

More Conditions Fewer Conditions

10-Day Weather Forecast

Almanac

Astronomy

Jan. 29, 2015 Rise Set
Actual Time
Civil Twilight
Nautical Twilight
Astronomical Twilight
Moon
Length of Visible Light
Length of Day
Tomorrow will be .
, % of the Moon is Illuminated

Today's Extremes

State Highs State Lows

Community

WunderPhotos

Upload Photos

1,791,421 photos uploaded!

WunderBlogs® & News

Nearby

Air Quality

  Air Quality AQ Index Pollutant
Not available.

Snow Depth

Station Depth Elevation

Earthquake Activity

City Distance Mag. Time & Date
Minimum magnitude displayed is 2.5.

Coastal Water Temperatures

Place Temperature

Nearby Weather Stations